createdAt,value
2022-09-27T00:01:29.883Z,99296.78
2022-09-27T00:03:58.727Z,99302.56
2022-09-27T00:06:29.705Z,99293.47
2022-09-27T00:08:57.914Z,99294.28
2022-09-27T00:11:28.364Z,99299.44
2022-09-27T00:13:56.309Z,99308.34
2022-09-27T00:16:24.894Z,99301.41
2022-09-27T00:18:52.714Z,99314.63
2022-09-27T00:21:20.546Z,99311.34
2022-09-27T00:23:49.560Z,99319.94
2022-09-27T00:26:17.179Z,99308.69
2022-09-27T00:28:45.059Z,99312.34
2022-09-27T00:31:20.873Z,99318.63
2022-09-27T00:33:49.783Z,99321.25
2022-09-27T00:36:17.869Z,99318.44
2022-09-27T00:38:45.868Z,99319.63
2022-09-27T00:41:17.634Z,99312.97
2022-09-27T00:43:48.077Z,99329.19
2022-09-27T00:46:20.370Z,99315.13
2022-09-27T00:48:48.492Z,99321.25
2022-09-27T00:51:16.703Z,99318.91
2022-09-27T00:53:46.951Z,99315.28
2022-09-27T00:56:19.450Z,99321.22
2022-09-27T00:58:49.981Z,99316.91
2022-09-27T01:01:17.741Z,99332.13
2022-09-27T01:03:50.295Z,99324.53
2022-09-27T01:06:18.120Z,99335.13
2022-09-27T01:08:46.097Z,99315.44
2022-09-27T01:11:24.820Z,99332.59
2022-09-27T01:14:02.971Z,99332.13
2022-09-27T01:16:35.845Z,99336.75
2022-09-27T01:19:10.843Z,99345.69
2022-09-27T01:21:52.713Z,99335.75
2022-09-27T01:24:49.583Z,99331.44
2022-09-27T01:27:47.974Z,99337.56
2022-09-27T01:30:22.724Z,99347.97
2022-09-27T01:32:56.280Z,99334.75
2022-09-27T01:35:29.981Z,99339.56
2022-09-27T01:38:06.646Z,99345.69
2022-09-27T01:40:38.664Z,99335.13
2022-09-27T01:43:10.759Z,99333.59
2022-09-27T01:45:44.562Z,99332.13
2022-09-27T01:48:15.371Z,99340.41
2022-09-27T01:50:47.086Z,99341.41
2022-09-27T01:53:18.794Z,99334.44
2022-09-27T01:55:49.732Z,99334.94
2022-09-27T01:58:21.488Z,99333.59
2022-09-27T02:00:52.577Z,99346.34
2022-09-27T02:03:22.076Z,99336.06
2022-09-27T02:05:54.594Z,99335.91
2022-09-27T02:08:26.435Z,99324.81
2022-09-27T02:10:55.730Z,99329.81
2022-09-27T02:13:24.782Z,99336.56
2022-09-27T02:15:59.355Z,99331.44
2022-09-27T02:18:31.099Z,99323.50
2022-09-27T02:21:00.143Z,99326.44
2022-09-27T02:23:33.153Z,99342.97
2022-09-27T02:26:05.042Z,99334.38
2022-09-27T02:28:36.552Z,99338.00
2022-09-27T02:31:05.859Z,99335.53
2022-09-27T02:33:36.859Z,99329.44
2022-09-27T02:36:04.517Z,99340.00
2022-09-27T02:38:32.631Z,99338.66
2022-09-27T02:41:00.397Z,99334.00
2022-09-27T02:43:30.447Z,99335.69
2022-09-27T02:46:10.229Z,99346.25
2022-09-27T02:48:42.360Z,99334.31
2022-09-27T02:51:28.448Z,99340.56
2022-09-27T02:54:06.737Z,99339.41
2022-09-27T02:56:37.940Z,99339.16
2022-09-27T02:59:10.035Z,99336.78
2022-09-27T03:01:44.962Z,99344.88
2022-09-27T03:04:19.085Z,99335.81
2022-09-27T03:06:47.759Z,99344.56
2022-09-27T03:09:19.669Z,99348.72
2022-09-27T03:11:47.338Z,99338.81
2022-09-27T03:14:15.088Z,99343.09
2022-09-27T03:16:44.195Z,99346.75
2022-09-27T03:19:12.053Z,99338.00
2022-09-27T03:21:39.953Z,99333.69
2022-09-27T03:24:07.935Z,99331.50
2022-09-27T03:26:35.706Z,99328.19
2022-09-27T03:29:03.371Z,99330.00
2022-09-27T03:31:31.530Z,99334.31
2022-09-27T03:34:00.605Z,99337.09
2022-09-27T03:36:28.828Z,99336.28
2022-09-27T03:38:56.474Z,99337.56
2022-09-27T03:41:24.130Z,99343.69
2022-09-27T03:43:51.977Z,99353.59
2022-09-27T03:46:19.699Z,99351.44
2022-09-27T03:48:47.379Z,99360.03
2022-09-27T03:51:16.454Z,99357.56
2022-09-27T03:53:44.069Z,99352.72
2022-09-27T03:56:11.709Z,99357.03
2022-09-27T03:58:39.341Z,99364.78
2022-09-27T04:01:06.982Z,99363.13
2022-09-27T04:03:36.079Z,99368.75
2022-09-27T04:06:04.146Z,99371.03
2022-09-27T04:08:33.151Z,99375.16
2022-09-27T04:11:00.844Z,99377.13
2022-09-27T04:13:28.456Z,99370.19
2022-09-27T04:15:56.197Z,99365.25
2022-09-27T04:18:23.919Z,99379.72
2022-09-27T04:20:51.595Z,99380.88
2022-09-27T04:23:20.644Z,99380.72
2022-09-27T04:25:50.539Z,99375.28
2022-09-27T04:28:18.218Z,99371.50
2022-09-27T04:30:46.694Z,99373.28
2022-09-27T04:33:14.864Z,99378.75
2022-09-27T04:36:01.398Z,99376.44
2022-09-27T04:38:29.071Z,99388.31
2022-09-27T04:40:58.431Z,99385.84
2022-09-27T04:43:26.628Z,99383.34
2022-09-27T04:45:54.438Z,99385.34
2022-09-27T04:48:22.080Z,99392.28
2022-09-27T04:50:57.181Z,99373.41
2022-09-27T04:53:25.099Z,99387.50
2022-09-27T04:55:54.139Z,99378.56
2022-09-27T04:58:23.397Z,99383.84
2022-09-27T05:00:52.418Z,99386.38
2022-09-27T05:03:20.222Z,99398.59
2022-09-27T05:05:47.858Z,99391.66
2022-09-27T05:08:15.522Z,99392.28
2022-09-27T05:10:43.245Z,99388.13
2022-09-27T05:13:10.877Z,99389.78
2022-09-27T05:15:40.088Z,99382.00
2022-09-27T05:18:08.130Z,99376.38
2022-09-27T05:20:36.395Z,99384.31
2022-09-27T05:23:04.687Z,99395.69
2022-09-27T05:25:32.808Z,99398.16
2022-09-27T05:28:00.585Z,99402.47
2022-09-27T05:30:28.435Z,99393.56
2022-09-27T05:32:57.543Z,99409.41
2022-09-27T05:35:25.286Z,99407.06
2022-09-27T05:37:54.034Z,99409.06
2022-09-27T05:40:40.393Z,99410.16
2022-09-27T05:43:09.442Z,99421.56
2022-09-27T05:45:37.450Z,99412.00
2022-09-27T05:48:06.725Z,99405.44
2022-09-27T05:50:34.993Z,99398.16
2022-09-27T05:53:02.691Z,99385.97
2022-09-27T05:55:30.716Z,99400.47
2022-09-27T05:57:59.674Z,99397.72
2022-09-27T06:00:27.762Z,99405.63
2022-09-27T06:02:57.201Z,99413.41
2022-09-27T06:05:28.707Z,99418.69
2022-09-27T06:08:00.399Z,99420.66
2022-09-27T06:10:28.518Z,99424.56
2022-09-27T06:13:00.871Z,99422.53
2022-09-27T06:15:28.580Z,99415.78
2022-09-27T06:17:56.245Z,99422.19
2022-09-27T06:20:23.895Z,99432.06
2022-09-27T06:22:54.127Z,99429.44
2022-09-27T06:25:21.847Z,99430.72
2022-09-27T06:27:49.483Z,99439.75
2022-09-27T06:30:20.350Z,99433.97
2022-09-27T06:32:48.366Z,99434.97
2022-09-27T06:35:16.141Z,99439.59
2022-09-27T06:37:43.789Z,99442.50
2022-09-27T06:40:13.034Z,99448.78
2022-09-27T06:42:40.844Z,99449.59
2022-09-27T06:45:09.161Z,99447.13
2022-09-27T06:47:36.953Z,99458.19
2022-09-27T06:50:06.501Z,99455.41
2022-09-27T06:52:35.057Z,99457.06
2022-09-27T06:55:02.949Z,99455.41
2022-09-27T06:57:49.282Z,99460.00
2022-09-27T07:00:26.865Z,99463.63
2022-09-27T07:03:00.851Z,99466.25
2022-09-27T07:05:29.585Z,99467.91
2022-09-27T07:07:57.862Z,99474.84
2022-09-27T07:10:26.990Z,99459.66
2022-09-27T07:12:56.573Z,99474.84
2022-09-27T07:15:24.258Z,99472.59
2022-09-27T07:17:57.977Z,99471.31
2022-09-27T07:20:25.855Z,99468.69
2022-09-27T07:22:54.032Z,99471.97
2022-09-27T07:25:21.764Z,99473.13
2022-09-27T07:27:49.616Z,99476.59
2022-09-27T07:30:18.778Z,99478.84
2022-09-27T07:32:46.403Z,99485.94
2022-09-27T07:35:15.458Z,99479.34
2022-09-27T07:37:43.457Z,99480.72
2022-09-27T07:40:11.360Z,99486.91
2022-09-27T07:42:39.260Z,99493.38
2022-09-27T07:45:09.301Z,99486.78
2022-09-27T07:47:39.107Z,99489.16
2022-09-27T07:50:07.293Z,99497.56
2022-09-27T07:52:40.621Z,99502.25
2022-09-27T07:55:09.433Z,99496.34
2022-09-27T07:57:37.510Z,99511.59
2022-09-27T08:00:06.534Z,99502.50
2022-09-27T08:02:34.284Z,99507.97
2022-09-27T08:05:03.880Z,99504.66
2022-09-27T08:07:32.936Z,99504.50
2022-09-27T08:10:00.833Z,99511.25
2022-09-27T08:12:28.515Z,99512.63
2022-09-27T08:14:58.532Z,99515.09
2022-09-27T08:17:26.274Z,99516.59
2022-09-27T08:19:53.905Z,99520.63
2022-09-27T08:22:22.960Z,99527.25
2022-09-27T08:24:50.989Z,99519.84
2022-09-27T08:27:19.089Z,99527.28
2022-09-27T08:29:47.759Z,99526.00
2022-09-27T08:32:18.311Z,99530.97
2022-09-27T08:34:49.950Z,99525.69
2022-09-27T08:37:17.620Z,99532.63
2022-09-27T08:39:48.125Z,99530.97
2022-09-27T08:42:20.844Z,99530.31
2022-09-27T08:44:52.048Z,99527.00
2022-09-27T08:47:25.120Z,99526.22
2022-09-27T08:49:55.644Z,99530.69
2022-09-27T08:52:27.693Z,99534.81
2022-09-27T08:54:57.279Z,99533.97
2022-09-27T08:57:25.483Z,99538.44
2022-09-27T08:59:59.392Z,99535.81
2022-09-27T09:02:27.357Z,99532.84
2022-09-27T09:04:58.079Z,99536.97
2022-09-27T09:07:37.363Z,99538.50
2022-09-27T09:10:41.330Z,99543.25
2022-09-27T09:13:12.669Z,99546.88
2022-09-27T09:15:58.446Z,99547.88
2022-09-27T09:18:34.887Z,99542.56
2022-09-27T09:21:08.376Z,99538.66
2022-09-27T09:24:02.410Z,99539.69
2022-09-27T09:26:36.666Z,99540.69
2022-09-27T09:29:14.076Z,99526.50
2022-09-27T09:31:44.185Z,99537.44
2022-09-27T09:34:16.558Z,99537.13
2022-09-27T09:36:47.636Z,99525.88
2022-09-27T09:39:19.126Z,99526.56
2022-09-27T09:41:57.781Z,99537.47
2022-09-27T09:44:28.610Z,99533.88
2022-09-27T09:46:58.415Z,99530.88
2022-09-27T09:49:29.433Z,99533.88
2022-09-27T09:52:01.735Z,99548.41
2022-09-27T09:54:34.007Z,99526.56
2022-09-27T09:57:08.995Z,99540.81
2022-09-27T09:59:42.988Z,99553.22
2022-09-27T10:02:23.025Z,99544.38
2022-09-27T10:04:50.823Z,99552.97
2022-09-27T10:07:21.794Z,99558.88
2022-09-27T10:09:49.492Z,99552.56
2022-09-27T10:12:18.544Z,99548.22
2022-09-27T10:14:48.126Z,99541.75
2022-09-27T10:17:18.081Z,99533.00
2022-09-27T10:19:46.182Z,99534.66
2022-09-27T10:22:16.802Z,99531.00
2022-09-27T10:24:56.342Z,99539.59
2022-09-27T10:27:26.561Z,99535.31
2022-09-27T10:29:58.823Z,99535.00
2022-09-27T10:32:31.282Z,99525.13
2022-09-27T10:35:23.600Z,99523.69
2022-09-27T10:37:52.559Z,99518.72
2022-09-27T10:40:28.971Z,99520.44
2022-09-27T10:42:58.034Z,99513.81
2022-09-27T10:45:31.038Z,99517.66
2022-09-27T10:47:59.435Z,99517.19
2022-09-27T10:53:18.777Z,99516.53
2022-09-27T10:55:48.951Z,99522.66
2022-09-27T10:58:21.037Z,99529.31
2022-09-27T11:00:56.456Z,99529.47
2022-09-27T11:03:25.486Z,99537.56
2022-09-27T11:05:54.706Z,99527.63
2022-09-27T11:08:27.439Z,99527.28
2022-09-27T11:11:07.615Z,99523.97
2022-09-27T11:13:36.701Z,99517.69
2022-09-27T11:16:21.086Z,99534.91
2022-09-27T11:18:55.139Z,99527.63
2022-09-27T11:21:31.746Z,99524.81
2022-09-27T11:24:09.405Z,99524.19
2022-09-27T11:26:45.915Z,99524.38
2022-09-27T11:29:25.651Z,99525.16
2022-09-27T11:32:04.817Z,99527.47
2022-09-27T11:34:44.596Z,99531.94
2022-09-27T11:37:21.124Z,99534.59
2022-09-27T11:39:58.211Z,99534.25
2022-09-27T11:42:43.855Z,99538.91
2022-09-27T11:45:41.208Z,99528.94
2022-09-27T11:48:24.457Z,99538.53
2022-09-27T11:50:58.755Z,99526.47
2022-09-27T11:53:35.675Z,99522.00
2022-09-27T11:56:08.386Z,99527.00
2022-09-27T11:58:43.657Z,99519.03
2022-09-27T12:01:23.933Z,99528.94
2022-09-27T12:04:09.170Z,99530.09
2022-09-27T12:06:44.467Z,99525.97
2022-09-27T12:09:14.803Z,99525.78
2022-09-27T12:11:46.023Z,99527.28
2022-09-27T12:14:21.629Z,99524.97
2022-09-27T12:16:55.185Z,99526.47
2022-09-27T12:19:25.678Z,99519.06
2022-09-27T12:21:53.327Z,99522.34
2022-09-27T12:24:23.155Z,99528.31
2022-09-27T12:26:53.009Z,99528.31
2022-09-27T12:29:23.540Z,99534.44
2022-09-27T12:31:58.736Z,99518.53
2022-09-27T12:34:31.497Z,99521.22
2022-09-27T12:37:04.581Z,99514.78
2022-09-27T12:39:42.554Z,99509.50
2022-09-27T12:42:16.119Z,99522.41
2022-09-27T12:44:47.536Z,99515.44
2022-09-27T12:47:33.321Z,99516.75
2022-09-27T12:50:05.212Z,99512.81
2022-09-27T12:52:35.402Z,99521.91
2022-09-27T12:55:26.327Z,99518.09
2022-09-27T12:58:08.641Z,99515.47
2022-09-27T13:00:38.327Z,99520.94
2022-09-27T13:03:39.187Z,99522.06
2022-09-27T13:06:27.431Z,99522.41
2022-09-27T13:09:17.708Z,99525.22
2022-09-27T13:11:49.479Z,99530.97
2022-09-27T13:14:19.686Z,99523.03
2022-09-27T13:16:48.157Z,99529.66
2022-09-27T13:19:40.300Z,99533.16
2022-09-27T13:22:09.131Z,99522.38
2022-09-27T13:24:48.242Z,99521.91
2022-09-27T13:27:38.484Z,99511.13
2022-09-27T13:30:48.703Z,99530.50
2022-09-27T13:33:44.397Z,99529.16
2022-09-27T13:36:30.380Z,99530.81
2022-09-27T13:39:26.642Z,99544.06
2022-09-27T13:42:09.118Z,99542.25
2022-09-27T13:44:47.150Z,99539.44
2022-09-27T13:47:26.394Z,99538.63
2022-09-27T13:49:58.347Z,99539.94
2022-09-27T13:52:33.811Z,99534.78
2022-09-27T13:55:02.965Z,99543.09
2022-09-27T13:57:44.171Z,99542.59
2022-09-27T14:00:14.597Z,99537.94
2022-09-27T14:02:51.311Z,99532.00
2022-09-27T14:05:23.034Z,99543.25
2022-09-27T14:07:53.301Z,99540.59
2022-09-27T14:10:24.179Z,99538.63
2022-09-27T14:12:53.539Z,99541.94
2022-09-27T14:16:08.671Z,99544.94
2022-09-27T14:18:37.662Z,99538.13
2022-09-27T14:21:16.010Z,99538.28
2022-09-27T14:23:43.755Z,99545.25
2022-09-27T14:26:23.490Z,99549.53
2022-09-27T14:28:51.143Z,99538.94
2022-09-27T14:31:22.989Z,99548.88
2022-09-27T14:33:52.277Z,99546.56
2022-09-27T14:36:44.938Z,99540.75
2022-09-27T14:39:17.121Z,99536.97
2022-09-27T14:41:45.300Z,99540.56
2022-09-27T14:44:17.779Z,99549.34
2022-09-27T14:46:47.935Z,99541.56
2022-09-27T14:49:25.894Z,99547.88
2022-09-27T14:51:54.489Z,99553.50
2022-09-27T14:54:25.276Z,99551.84
2022-09-27T14:56:54.521Z,99551.16
2022-09-27T14:59:30.667Z,99548.00
2022-09-27T15:02:01.758Z,99546.34
2022-09-27T15:04:32.016Z,99547.69
2022-09-27T15:07:01.756Z,99547.69
2022-09-27T15:09:32.967Z,99544.53
2022-09-27T15:12:04.868Z,99540.53
2022-09-27T15:14:33.766Z,99549.47
2022-09-27T15:17:06.182Z,99541.88
2022-09-27T15:19:34.440Z,99545.81
2022-09-27T15:22:23.402Z,99542.84
2022-09-27T15:24:52.078Z,99538.69
2022-09-27T15:27:22.600Z,99541.16
2022-09-27T15:29:51.454Z,99540.03
2022-09-27T15:32:22.814Z,99526.28
2022-09-27T15:34:50.924Z,99542.19
2022-09-27T15:37:29.115Z,99543.81
2022-09-27T15:39:57.150Z,99543.81
2022-09-27T15:42:24.837Z,99541.19
2022-09-27T15:44:54.119Z,99542.88
2022-09-27T15:47:42.339Z,99534.75
2022-09-27T15:50:38.064Z,99538.22
2022-09-27T15:53:06.991Z,99543.81
2022-09-27T15:55:37.706Z,99550.13
2022-09-27T15:58:08.199Z,99542.19
2022-09-27T16:00:36.914Z,99550.13
2022-09-27T16:03:06.133Z,99556.41
2022-09-27T16:05:33.857Z,99549.28
2022-09-27T16:08:01.968Z,99555.75
2022-09-27T16:10:33.092Z,99556.91
2022-09-27T16:13:00.745Z,99554.72
2022-09-27T16:15:28.379Z,99548.06
2022-09-27T16:17:57.686Z,99555.34
2022-09-27T16:20:28.045Z,99545.09
2022-09-27T16:22:56.505Z,99558.50
2022-09-27T16:25:24.391Z,99557.81
2022-09-27T16:27:52.404Z,99552.38
2022-09-27T16:30:21.081Z,99549.06
2022-09-27T16:32:50.009Z,99549.75
2022-09-27T16:35:19.606Z,99548.78
2022-09-27T16:39:47.861Z,99539.69
2022-09-27T16:42:15.996Z,99550.13
2022-09-27T16:44:43.718Z,99550.25
2022-09-27T16:47:11.399Z,99543.09
2022-09-27T16:49:56.470Z,99546.31
2022-09-27T16:52:24.117Z,99543.13
2022-09-27T16:54:53.165Z,99546.75
2022-09-27T16:57:20.874Z,99547.19
2022-09-27T16:59:48.912Z,99548.50
2022-09-27T17:02:18.006Z,99551.44
2022-09-27T17:04:45.705Z,99549.94
2022-09-27T17:07:13.488Z,99551.09
2022-09-27T17:09:41.166Z,99543.47
2022-09-27T17:12:12.036Z,99542.63
2022-09-27T17:14:39.943Z,99543.78
2022-09-27T17:17:08.296Z,99534.31
2022-09-27T17:19:39.074Z,99536.13
2022-09-27T17:22:08.517Z,99526.88
2022-09-27T17:24:36.571Z,99535.47
2022-09-27T17:27:04.327Z,99523.25
2022-09-27T17:29:33.610Z,99520.78
2022-09-27T17:32:01.604Z,99518.28
2022-09-27T17:34:29.275Z,99521.88
2022-09-27T17:36:57.138Z,99520.22
2022-09-27T17:39:24.767Z,99519.56
2022-09-27T17:41:52.545Z,99512.78
2022-09-27T17:44:20.334Z,99515.56
2022-09-27T17:47:09.710Z,99517.53
2022-09-27T17:49:54.692Z,99516.31
2022-09-27T17:52:23.452Z,99516.47
2022-09-27T17:54:51.750Z,99514.16
2022-09-27T17:57:19.429Z,99516.78
2022-09-27T17:59:47.155Z,99520.41
2022-09-27T18:02:16.410Z,99502.09
2022-09-27T18:04:44.195Z,99510.84
2022-09-27T18:07:13.063Z,99510.13
2022-09-27T18:09:40.798Z,99504.03
2022-09-27T18:12:08.565Z,99504.84
2022-09-27T18:14:36.585Z,99501.56
2022-09-27T18:17:04.324Z,99496.28
2022-09-27T18:19:33.626Z,99494.31
2022-09-27T18:22:01.890Z,99498.75
2022-09-27T18:24:29.529Z,99494.47
2022-09-27T18:26:59.866Z,99498.91
2022-09-27T18:29:28.685Z,99490.47
2022-09-27T18:31:56.405Z,99495.59
2022-09-27T18:34:24.454Z,99492.97
2022-09-27T18:36:53.561Z,99483.25
2022-09-27T18:39:21.501Z,99486.03
2022-09-27T18:41:49.577Z,99486.03
2022-09-27T18:44:18.141Z,99486.03
2022-09-27T18:46:46.450Z,99473.81
2022-09-27T18:49:15.372Z,99475.47
2022-09-27T18:51:46.054Z,99474.66
2022-09-27T18:54:17.254Z,99476.31
2022-09-27T18:56:45.307Z,99472.97
2022-09-27T18:59:13.258Z,99473.13
2022-09-27T19:01:44.832Z,99476.59
2022-09-27T19:04:15.043Z,99472.44
2022-09-27T19:06:42.835Z,99472.44
2022-09-27T19:09:12.385Z,99478.56
2022-09-27T19:11:41.501Z,99479.69
2022-09-27T19:14:09.194Z,99479.69
2022-09-27T19:16:36.884Z,99476.06
2022-09-27T19:19:04.478Z,99470.81
2022-09-27T19:21:32.119Z,99481.34
2022-09-27T19:23:59.830Z,99476.06
2022-09-27T19:26:28.281Z,99468.31
2022-09-27T19:28:58.794Z,99469.16
2022-09-27T19:31:29.314Z,99473.72
2022-09-27T19:34:00.193Z,99479.97
2022-09-27T19:36:29.122Z,99474.59
2022-09-27T19:38:58.623Z,99480.69
2022-09-27T19:41:26.893Z,99481.63
2022-09-27T19:43:55.461Z,99483.31
2022-09-27T19:46:25.999Z,99481.63
2022-09-27T19:48:55.095Z,99479.97
2022-09-27T19:51:23.877Z,99475.69
2022-09-27T19:53:52.351Z,99469.59
2022-09-27T19:56:20.629Z,99466.13
2022-09-27T19:58:48.522Z,99471.72
2022-09-27T20:01:19.225Z,99472.69
2022-09-27T20:03:49.325Z,99464.78
2022-09-27T20:06:18.867Z,99463.09
2022-09-27T20:08:47.825Z,99468.69
2022-09-27T20:11:17.445Z,99468.69
2022-09-27T20:13:45.248Z,99473.97
2022-09-27T20:16:14.411Z,99453.47
2022-09-27T20:18:43.321Z,99468.69
2022-09-27T20:21:12.861Z,99463.41
2022-09-27T20:23:41.048Z,99464.41
2022-09-27T20:26:10.186Z,99465.91
2022-09-27T20:28:41.925Z,99457.81
2022-09-27T20:31:09.845Z,99454.50
2022-09-27T20:33:44.099Z,99448.56
2022-09-27T20:36:14.542Z,99439.97
2022-09-27T20:38:43.306Z,99450.22
2022-09-27T20:41:11.585Z,99437.03
2022-09-27T20:43:39.394Z,99439.66
2022-09-27T20:46:08.816Z,99429.13
2022-09-27T20:48:38.201Z,99433.41
2022-09-27T20:51:06.540Z,99431.75
2022-09-27T20:53:35.755Z,99428.13
2022-09-27T20:56:03.752Z,99422.03
2022-09-27T20:58:32.510Z,99433.41
2022-09-27T21:01:07.489Z,99438.69
2022-09-27T21:03:35.513Z,99425.97
2022-09-27T21:06:04.569Z,99419.00
2022-09-27T21:08:34.264Z,99413.72
2022-09-27T21:11:08.546Z,99417.91
2022-09-27T21:13:36.909Z,99414.56
2022-09-27T21:16:05.817Z,99416.25
2022-09-27T21:18:33.906Z,99419.84
2022-09-27T21:21:02.901Z,99424.44
2022-09-27T21:23:31.140Z,99424.44
2022-09-27T21:26:03.271Z,99426.09
2022-09-27T21:28:37.386Z,99418.81
2022-09-27T21:31:07.035Z,99426.09
2022-09-27T21:33:34.898Z,99426.09
2022-09-27T21:36:03.274Z,99429.72
2022-09-27T21:38:31.519Z,99432.34
2022-09-27T21:41:00.182Z,99429.72
2022-09-27T21:43:28.657Z,99425.44
2022-09-27T21:46:03.821Z,99419.00
2022-09-27T21:48:31.591Z,99423.78
2022-09-27T21:51:07.251Z,99421.66
2022-09-27T21:53:35.455Z,99423.78
2022-09-27T21:56:03.789Z,99424.59
2022-09-27T21:58:34.040Z,99418.19
2022-09-27T22:01:09.452Z,99425.09
2022-09-27T22:03:37.561Z,99424.44
2022-09-27T22:06:06.481Z,99422.63
2022-09-27T22:08:34.124Z,99415.84
2022-09-27T22:11:01.852Z,99421.13
2022-09-27T22:13:29.634Z,99414.38
2022-09-27T22:15:57.524Z,99417.81
2022-09-27T22:18:26.988Z,99424.09
2022-09-27T22:20:54.654Z,99421.72
2022-09-27T22:23:22.388Z,99418.44
2022-09-27T22:25:50.052Z,99421.06
2022-09-27T22:28:17.807Z,99421.06
2022-09-27T22:30:45.493Z,99419.91
2022-09-27T22:33:13.445Z,99415.47
2022-09-27T22:35:47.799Z,99420.47
2022-09-27T22:38:16.038Z,99417.13
2022-09-27T22:40:43.823Z,99417.94
2022-09-27T22:43:12.124Z,99426.03
2022-09-27T22:45:40.232Z,99401.47
2022-09-27T22:48:07.974Z,99406.56
2022-09-27T22:50:36.177Z,99404.91
2022-09-27T22:53:05.240Z,99402.28
2022-09-27T22:55:32.853Z,99393.53
2022-09-27T22:58:00.577Z,99397.16
2022-09-27T23:00:28.355Z,99398.00
2022-09-27T23:02:56.452Z,99394.38
2022-09-27T23:05:24.765Z,99396.19
2022-09-27T23:07:53.142Z,99392.72
2022-09-27T23:10:23.385Z,99383.97
2022-09-27T23:12:54.567Z,99386.63
2022-09-27T23:15:22.503Z,99389.41
2022-09-27T23:17:50.996Z,99387.59
2022-09-27T23:20:18.767Z,99381.50
2022-09-27T23:22:46.557Z,99374.56
2022-09-27T23:25:14.483Z,99376.22
2022-09-27T23:27:45.179Z,99376.06
2022-09-27T23:30:14.077Z,99373.59
2022-09-27T23:32:44.692Z,99376.06
2022-09-27T23:35:12.533Z,99363.03
2022-09-27T23:37:40.344Z,99366.66
2022-09-27T23:40:09.558Z,99366.66
2022-09-27T23:42:37.629Z,99371.13
2022-09-27T23:45:07.671Z,99358.91
2022-09-27T23:47:35.370Z,99365.84
2022-09-27T23:50:03.098Z,99359.72
2022-09-27T23:52:30.751Z,99357.09
2022-09-27T23:54:58.462Z,99351.13
2022-09-27T23:57:26.129Z,99350.84
2022-09-27T23:59:53.870Z,99351.66
